Time;durP1;ratioP1;P1;durP2;ratioP2;P2;SDS_P1;SDS_P2;PMS_P1;PMS_P2;Temp;Humidity;BMP_temperature;BMP_pressure;BME280_temperature;BME280_humidity;BME280_pressure;Samples;Min_cycle;Max_cycle;Signal;HPM_P1;HPM_P2
2023/08/27 00:01:52;;;;;;;;;;;;;;;22.49;56.98;100932.16;5063748;28;19938;-44
2023/08/27 00:04:17;;;;;;;;;;;;;;;22.49;56.80;100926.72;5063363;28;19967;-45
2023/08/27 00:06:42;;;;;;;;;;;;;;;22.48;56.87;100930.47;5063836;28;19948;-44
2023/08/27 00:09:07;;;;;;;;;;;;;;;22.48;56.98;100935.06;5063965;28;19916;-44
2023/08/27 00:11:33;;;;;;;;;;;;;;;22.47;56.99;100936.91;5064058;28;19916;-45
2023/08/27 00:13:58;;;;;;;;;;;;;;;22.46;56.92;100937.94;5063108;28;19932;-44
2023/08/27 00:16:23;;;;;;;;;;;;;;;22.45;57.19;100934.41;5063712;28;19912;-44
2023/08/27 00:18:48;;;;;;;;;;;;;;;22.45;56.97;100930.84;5063456;28;19919;-45
2023/08/27 00:21:13;;;;;;;;;;;;;;;22.44;57.06;100929.19;5063289;28;19923;-44
2023/08/27 00:23:40;;;;;;;;;;;;;;;22.43;57.16;100928.34;5062992;28;19917;-46
2023/08/27 00:26:05;;;;;;;;;;;;;;;22.44;57.00;100921.06;5062797;28;19925;-45
2023/08/27 00:28:30;;;;;;;;;;;;;;;22.43;57.05;100916.69;5063097;28;19913;-44
2023/08/27 00:31:00;;;;;;;;;;;;;;;22.42;57.03;100920.38;5062721;28;19913;-44
2023/08/27 00:33:25;;;;;;;;;;;;;;;22.41;56.90;100921.44;5063594;28;19924;-44
2023/08/27 00:35:53;;;;;;;;;;;;;;;22.40;57.05;100917.06;5062708;28;19912;-45
2023/08/27 00:38:18;;;;;;;;;;;;;;;22.40;56.99;100928.72;5063505;28;19917;-45
2023/08/27 00:40:43;;;;;;;;;;;;;;;22.39;57.12;100909.97;5062949;28;19917;-47
2023/08/27 00:43:09;;;;;;;;;;;;;;;22.39;56.91;100912.66;5062441;28;19988;-47
2023/08/27 00:45:34;;;;;;;;;;;;;;;22.38;57.04;100910.97;5063477;28;19913;-45
2023/08/27 00:47:59;;;;;;;;;;;;;;;22.38;57.00;100910.97;5063229;28;19935;-50
2023/08/27 00:50:25;;;;;;;;;;;;;;;22.36;57.03;100913.03;5095495;28;20600;-50
2023/08/27 00:52:50;;;;;;;;;;;;;;;22.35;57.02;100914.91;5063718;28;20428;-50
2023/08/27 00:55:15;;;;;;;;;;;;;;;22.35;56.96;100909.50;5078840;28;20013;-48
2023/08/27 00:57:40;;;;;;;;;;;;;;;22.35;56.97;100909.50;5062953;28;19913;-47
2023/08/27 01:00:09;;;;;;;;;;;;;;;22.34;56.83;100904.25;5061770;28;19917;-46
2023/08/27 01:02:34;;;;;;;;;;;;;;;22.34;56.87;100901.53;5095173;28;19917;-47
2023/08/27 01:04:59;;;;;;;;;;;;;;;22.32;56.71;100890.91;5061288;28;19912;-51
2023/08/27 01:07:40;;;;;;;;;;;;;;;22.33;57.05;100899.88;5062973;28;19917;-51
2023/08/27 01:10:13;;;;;;;;;;;;;;;22.33;56.59;100897.16;5062896;28;19913;-49
2023/08/27 01:12:57;;;;;;;;;;;;;;;22.32;57.04;100890.06;5062384;28;20983;-46
2023/08/27 01:15:22;;;;;;;;;;;;;;;22.31;56.86;100893.81;5063363;28;20289;-51
2023/08/27 01:17:47;;;;;;;;;;;;;;;22.29;56.87;100891.28;5095300;28;19912;-50
2023/08/27 01:20:13;;;;;;;;;;;;;;;22.29;56.91;100887.75;5062854;28;20385;-51
2023/08/27 01:22:38;;;;;;;;;;;;;;;22.28;56.94;100889.63;5062760;28;19917;-47
2023/08/27 01:25:05;;;;;;;;;;;;;;;22.28;56.95;100891.50;5062574;28;20016;-50
2023/08/27 01:27:32;;;;;;;;;;;;;;;22.28;56.99;100884.19;5062894;28;19920;-50
2023/08/27 01:30:00;;;;;;;;;;;;;;;22.27;56.93;100877.13;5061659;28;19915;-49
2023/08/27 01:32:47;;;;;;;;;;;;;;;22.27;56.74;100876.28;5094727;28;19920;-49
2023/08/27 01:35:12;;;;;;;;;;;;;;;22.26;56.74;100871.88;5093987;28;19921;-51
2023/08/27 01:37:37;;;;;;;;;;;;;;;22.26;56.83;100869.16;5062716;28;20311;-51
2023/08/27 01:40:05;;;;;;;;;;;;;;;22.25;56.95;100868.31;5095347;28;19942;-46
2023/08/27 01:42:31;;;;;;;;;;;;;;;22.25;56.97;100862.91;5065127;28;19913;-49
2023/08/27 01:44:56;;;;;;;;;;;;;;;22.25;56.85;100857.50;5065242;28;19923;-49
2023/08/27 01:47:21;;;;;;;;;;;;;;;22.24;56.92;100852.28;5066912;28;20003;-50
2023/08/27 01:49:48;;;;;;;;;;;;;;;22.24;56.77;100844.97;5066481;28;19920;-51
2023/08/27 01:52:13;;;;;;;;;;;;;;;22.23;56.73;100837.91;5066575;28;19916;-49
2023/08/27 01:54:38;;;;;;;;;;;;;;;22.23;56.80;100835.19;5098655;28;19917;-50
2023/08/27 01:57:04;;;;;;;;;;;;;;;22.23;56.78;100831.66;5066077;28;19923;-51
2023/08/27 01:59:29;;;;;;;;;;;;;;;22.23;57.04;100837.06;5066033;28;20011;-47
2023/08/27 02:01:54;;;;;;;;;;;;;;;22.22;56.92;100828.09;5066086;28;19976;-49
2023/08/27 02:04:19;;;;;;;;;;;;;;;22.20;56.58;100830.97;5065780;28;20031;-51
2023/08/27 02:06:45;;;;;;;;;;;;;;;22.20;56.68;100817.44;5066518;28;19928;-48
2023/08/27 02:09:10;;;;;;;;;;;;;;;22.20;56.74;100820.16;5064630;28;19913;-47
2023/08/27 02:11:35;;;;;;;;;;;;;;;22.20;56.88;100827.44;5064638;28;20230;-47
2023/08/27 02:14:00;;;;;;;;;;;;;;;22.19;56.87;100828.47;5065599;28;20392;-46
2023/08/27 02:16:25;;;;;;;;;;;;;;;22.19;56.57;100826.59;5066079;28;19939;-45
2023/08/27 02:18:51;;;;;;;;;;;;;;;22.18;56.64;100827.66;5065788;28;19975;-45
2023/08/27 02:21:16;;;;;;;;;;;;;;;22.18;56.87;100813.28;5065902;28;19948;-46
2023/08/27 02:23:42;;;;;;;;;;;;;;;22.17;56.83;100820.56;5065910;28;19917;-47
2023/08/27 02:26:07;;;;;;;;;;;;;;;22.17;56.71;100820.56;5065888;28;20003;-45
2023/08/27 02:28:36;;;;;;;;;;;;;;;22.16;56.62;100826.97;5065301;28;20495;-48
2023/08/27 02:31:02;;;;;;;;;;;;;;;22.16;56.61;100818.84;5065730;28;19913;-45
2023/08/27 02:33:27;;;;;;;;;;;;;;;22.15;56.77;100828.03;5064683;28;19932;-45
2023/08/27 02:35:52;;;;;;;;;;;;;;;22.16;56.96;100840.53;5063892;28;19917;-45
2023/08/27 02:38:18;;;;;;;;;;;;;;;22.15;56.91;100833.44;5065787;28;19924;-45
2023/08/27 02:40:43;;;;;;;;;;;;;;;22.15;56.58;100829.91;5065424;28;19947;-47
2023/08/27 02:43:08;;;;;;;;;;;;;;;22.15;56.75;100813.66;5065589;28;19919;-46
2023/08/27 02:45:33;;;;;;;;;;;;;;;22.14;56.74;100817.41;5065180;28;19913;-46
2023/08/27 02:47:58;;;;;;;;;;;;;;;22.14;56.73;100822.81;5065652;28;19917;-46
2023/08/27 02:50:24;;;;;;;;;;;;;;;22.14;56.80;100822.81;5065427;28;19912;-46
2023/08/27 02:52:49;;;;;;;;;;;;;;;22.13;56.47;100832.81;5065108;28;19912;-47
2023/08/27 02:55:15;;;;;;;;;;;;;;;22.13;56.86;100823.81;5065145;28;19924;-46
2023/08/27 02:57:40;;;;;;;;;;;;;;;22.12;56.61;100828.41;5073897;28;19921;-45
2023/08/27 03:00:06;;;;;;;;;;;;;;;22.13;56.70;100837.34;5065436;28;20393;-46
2023/08/27 03:02:31;;;;;;;;;;;;;;;22.12;56.88;100844.66;5065059;28;20032;-46
2023/08/27 03:04:58;;;;;;;;;;;;;;;22.11;56.65;100842.94;5064275;28;19921;-47
2023/08/27 03:07:23;;;;;;;;;;;;;;;22.11;56.91;100837.53;5064886;28;19920;-47
2023/08/27 03:09:48;;;;;;;;;;;;;;;22.11;56.72;100842.94;5095567;28;19985;-46
2023/08/27 03:12:14;;;;;;;;;;;;;;;22.10;56.82;100830.44;5065083;28;19955;-46
2023/08/27 03:14:39;;;;;;;;;;;;;;;22.10;56.50;100818.78;5064853;28;19916;-48
2023/08/27 03:17:04;;;;;;;;;;;;;;;22.10;56.85;100816.91;5065061;28;20392;-46
2023/08/27 03:19:29;;;;;;;;;;;;;;;22.10;56.64;100816.06;5064391;28;20010;-47
2023/08/27 03:21:55;;;;;;;;;;;;;;;22.09;56.60;100803.53;5097291;28;19917;-47
2023/08/27 03:24:20;;;;;;;;;;;;;;;22.09;56.79;100808.94;5064746;28;19969;-45
2023/08/27 03:26:45;;;;;;;;;;;;;;;22.08;56.62;100805.41;5064990;28;20266;-48
2023/08/27 03:29:10;;;;;;;;;;;;;;;22.07;56.56;100787.50;5064088;28;19916;-45
2023/08/27 03:31:35;;;;;;;;;;;;;;;22.07;56.66;100790.19;5064506;28;19913;-46
2023/08/27 03:34:01;;;;;;;;;;;;;;;22.07;56.39;100784.78;5063515;28;19920;-47
2023/08/27 03:36:26;;;;;;;;;;;;;;;22.07;56.50;100781.25;5063771;28;19913;-46
2023/08/27 03:38:51;;;;;;;;;;;;;;;22.07;56.44;100786.66;5064906;28;19913;-46
2023/08/27 03:41:16;;;;;;;;;;;;;;;22.06;56.62;100796.66;5064156;28;20405;-46
2023/08/27 03:43:42;;;;;;;;;;;;;;;22.05;56.86;100794.97;5064095;28;19917;-45
2023/08/27 03:46:07;;;;;;;;;;;;;;;22.05;56.58;100811.22;5063718;28;19913;-45
2023/08/27 03:48:32;;;;;;;;;;;;;;;22.05;56.51;100803.09;5064520;28;19913;-46
2023/08/27 03:50:57;;;;;;;;;;;;;;;22.05;56.68;100804.97;5063836;28;19927;-44
2023/08/27 03:53:22;;;;;;;;;;;;;;;22.04;56.38;100812.22;5064472;28;19928;-43
2023/08/27 03:55:48;;;;;;;;;;;;;;;22.05;56.72;100818.50;5064063;28;19913;-45
2023/08/27 03:58:13;;;;;;;;;;;;;;;22.03;56.53;100829.50;5064046;28;19916;-44
2023/08/27 04:00:38;;;;;;;;;;;;;;;22.02;56.63;100830.56;5063843;28;20008;-47
2023/08/27 04:03:04;;;;;;;;;;;;;;;22.02;56.80;100827.00;5063737;28;19917;-43
2023/08/27 04:05:30;;;;;;;;;;;;;;;22.02;56.58;100827.84;5062278;28;19916;-44
2023/08/27 04:07:55;;;;;;;;;;;;;;;22.02;56.42;100832.44;5063956;28;20475;-44
2023/08/27 04:10:20;;;;;;;;;;;;;;;22.02;56.46;100837.84;5063701;28;19920;-47
2023/08/27 04:12:46;;;;;;;;;;;;;;;22.01;56.51;100841.59;5063343;28;19940;-44
2023/08/27 04:15:11;;;;;;;;;;;;;;;22.01;56.61;100844.28;5064099;28;19917;-44
2023/08/27 04:17:37;;;;;;;;;;;;;;;22.00;56.56;100846.13;5064171;28;19913;-43
2023/08/27 04:20:03;;;;;;;;;;;;;;;22.00;56.37;100829.06;5062779;28;19917;-46
2023/08/27 04:22:28;;;;;;;;;;;;;;;21.99;56.61;100836.34;5061090;28;19920;-44
2023/08/27 04:24:54;;;;;;;;;;;;;;;21.98;56.46;100834.66;5063396;28;19925;-46
2023/08/27 04:27:19;;;;;;;;;;;;;;;21.96;56.50;100832.16;5063257;28;19913;-46
2023/08/27 04:29:44;;;;;;;;;;;;;;;;;;5060371;28;19917;-46
2023/08/27 04:32:10;;;;;;;;;;;;;;;21.96;56.69;100831.31;5062953;28;19917;-45
2023/08/27 04:34:35;;;;;;;;;;;;;;;;;;5063011;28;19913;-46
2023/08/27 04:37:03;;;;;;;;;;;;;;;21.96;56.79;100832.16;5058036;28;19923;-43
2023/08/27 04:39:29;;;;;;;;;;;;;;;21.96;56.54;100831.31;5062299;28;20004;-45
2023/08/27 04:41:54;;;;;;;;;;;;;;;21.96;56.63;100832.16;5062964;28;19917;-44
2023/08/27 04:44:19;;;;;;;;;;;;;;;21.96;56.65;100843.00;5063331;28;19912;-45
2023/08/27 04:46:44;;;;;;;;;;;;;;;21.96;56.77;100851.13;5063662;28;19920;-44
2023/08/27 04:49:09;;;;;;;;;;;;;;;;;;5063110;28;19935;-47
2023/08/27 04:51:34;;;;;;;;;;;;;;;21.96;56.71;100850.25;5063066;28;19928;-45
2023/08/27 04:54:01;;;;;;;;;;;;;;;21.96;56.64;100850.25;5063305;28;20454;-45
2023/08/27 04:56:27;;;;;;;;;;;;;;;21.96;57.02;100853.81;5063117;28;19913;-46
2023/08/27 04:58:52;;;;;;;;;;;;;;;21.98;57.07;100850.09;5058928;28;19936;-46
2023/08/27 05:01:17;;;;;;;;;;;;;;;21.96;57.04;100851.13;5062314;28;19913;-45
2023/08/27 05:03:42;;;;;;;;;;;;;;;21.96;57.20;100850.25;5062459;28;20234;-44
2023/08/27 05:06:08;;;;;;;;;;;;;;;21.98;57.28;100853.63;5061101;28;19951;-44
2023/08/27 05:08:33;;;;;;;;;;;;;;;21.98;57.35;100863.63;5059038;28;19948;-46
2023/08/27 05:10:58;;;;;;;;;;;;;;;21.98;57.48;100866.31;5072191;28;20401;-44
2023/08/27 05:13:25;;;;;;;;;;;;;;;21.99;57.46;100862.56;5067489;28;19917;-44
2023/08/27 05:15:50;;;;;;;;;;;;;;;21.99;57.59;100857.16;5071660;28;19988;-46
2023/08/27 05:18:15;;;;;;;;;;;;;;;21.99;57.50;100857.16;5073559;28;19924;-45
2023/08/27 05:20:41;;;;;;;;;;;;;;;21.99;57.41;100847.16;5070022;28;19936;-43
2023/08/27 05:23:06;;;;;;;;;;;;;;;21.99;57.71;100844.47;5070714;28;19913;-44
2023/08/27 05:25:31;;;;;;;;;;;;;;;21.99;57.43;100839.06;5073863;28;19928;-43
2023/08/27 05:27:56;;;;;;;;;;;;;;;21.99;57.45;100827.38;5067929;28;20328;-46
2023/08/27 05:30:21;;;;;;;;;;;;;;;21.98;57.41;100826.56;5067658;28;19939;-44
2023/08/27 05:32:47;;;;;;;;;;;;;;;21.99;57.51;100824.69;5072220;28;19948;-46
2023/08/27 05:35:12;;;;;;;;;;;;;;;;;;5075675;28;19916;-44
2023/08/27 05:37:37;;;;;;;;;;;;;;;21.98;57.40;100804.88;5106287;28;20274;-43
2023/08/27 05:40:04;;;;;;;;;;;;;;;21.98;57.52;100812.19;5069243;28;19917;-46
2023/08/27 05:42:30;;;;;;;;;;;;;;;21.98;57.45;100812.19;5067568;28;19917;-45
2023/08/27 05:44:55;;;;;;;;;;;;;;;21.99;57.52;100824.69;5074586;28;19924;-45
2023/08/27 05:47:20;;;;;;;;;;;;;;;21.99;57.76;100824.69;5068216;28;20380;-45
2023/08/27 05:49:45;;;;;;;;;;;;;;;21.98;57.69;100823.84;5071173;28;19927;-45
2023/08/27 05:52:10;;;;;;;;;;;;;;;21.96;57.40;100826.75;5071644;28;19913;-45
2023/08/27 05:54:36;;;;;;;;;;;;;;;21.96;57.62;100824.03;5072730;28;19917;-45
2023/08/27 05:57:01;;;;;;;;;;;;;;;21.98;57.73;100823.00;5073267;28;20048;-45
2023/08/27 05:59:26;;;;;;;;;;;;;;;21.98;57.80;100814.88;5070392;28;20322;-44
2023/08/27 06:01:51;;;;;;;;;;;;;;;21.99;57.92;100816.56;5073937;28;20329;-45
2023/08/27 06:04:16;;;;;;;;;;;;;;;21.98;57.60;100813.00;5073304;28;19924;-48
2023/08/27 06:06:42;;;;;;;;;;;;;;;21.98;57.77;100806.75;5074700;28;19916;-47
2023/08/27 06:09:07;;;;;;;;;;;;;;;21.99;57.79;100811.13;5074083;28;19919;-46
2023/08/27 06:11:32;;;;;;;;;;;;;;;21.99;57.85;100811.13;5075320;28;19938;-45
2023/08/27 06:13:58;;;;;;;;;;;;;;;21.99;57.85;100806.56;5068364;28;20293;-44
2023/08/27 06:16:23;;;;;;;;;;;;;;;21.99;58.03;100803.84;5072136;28;19916;-44
2023/08/27 06:18:49;;;;;;;;;;;;;;;21.98;57.86;100794.06;5067109;28;19925;-45
2023/08/27 06:21:14;;;;;;;;;;;;;;;;;;5063430;28;19927;-47
2023/08/27 06:23:39;;;;;;;;;;;;;;;21.99;57.77;100805.72;5052468;28;19916;-44
2023/08/27 06:26:05;;;;;;;;;;;;;;;21.98;57.92;100812.19;5062907;28;19986;-46
2023/08/27 06:28:30;;;;;;;;;;;;;;;21.99;57.76;100811.97;5060723;28;19924;-47
2023/08/27 06:30:55;;;;;;;;;;;;;;;21.98;57.83;100810.31;5062436;28;19917;-46
2023/08/27 06:33:21;;;;;;;;;;;;;;;21.98;58.10;100807.59;5061107;28;20235;-46
2023/08/27 06:35:46;;;;;;;;;;;;;;;22.00;57.83;100810.09;5061487;28;20362;-45
2023/08/27 06:38:11;;;;;;;;;;;;;;;21.99;57.98;100808.44;5064459;28;20665;-45
2023/08/27 06:40:36;;;;;;;;;;;;;;;21.99;57.80;100806.56;5062599;28;19958;-46
2023/08/27 06:43:02;;;;;;;;;;;;;;;22.00;57.75;100810.09;5062862;28;19913;-45
2023/08/27 06:45:28;;;;;;;;;;;;;;;22.00;57.73;100801.97;5064404;28;19923;-48
2023/08/27 06:47:53;;;;;;;;;;;;;;;22.00;57.82;100801.97;5056895;28;19952;-47
2023/08/27 06:50:20;;;;;;;;;;;;;;;21.99;57.85;100795.72;5062474;28;19919;-47
2023/08/27 06:52:45;;;;;;;;;;;;;;;21.99;58.15;100790.31;5063945;28;19920;-45
2023/08/27 06:55:10;;;;;;;;;;;;;;;22.00;57.91;100786.56;5062717;28;19916;-50
2023/08/27 06:57:35;;;;;;;;;;;;;;;22.00;57.83;100783.03;5062643;28;19916;-46
2023/08/27 07:00:01;;;;;;;;;;;;;;;22.00;57.76;100789.28;5060277;28;19928;-50
2023/08/27 07:02:27;;;;;;;;;;;;;;;22.00;57.76;100791.16;5063624;28;20313;-48
2023/08/27 07:04:52;;;;;;;;;;;;;;;22.00;58.02;100785.75;5060728;28;19913;-48
2023/08/27 07:07:18;;;;;;;;;;;;;;;22.01;57.90;100790.16;5062993;28;20016;-45
2023/08/27 07:09:43;;;;;;;;;;;;;;;22.00;58.07;100783.03;5060366;28;20019;-46
2023/08/27 07:12:08;;;;;;;;;;;;;;;22.00;58.01;100792.00;5061338;28;19948;-48
2023/08/27 07:14:33;;;;;;;;;;;;;;;22.00;57.84;100800.09;5062269;28;19917;-49
2023/08/27 07:16:59;;;;;;;;;;;;;;;22.01;57.78;100798.28;5063262;28;19963;-47
2023/08/27 07:19:24;;;;;;;;;;;;;;;22.00;57.81;100789.28;5062768;28;19917;-44
2023/08/27 07:21:50;;;;;;;;;;;;;;;22.00;57.83;100783.88;5061884;28;19927;-47
2023/08/27 07:24:15;;;;;;;;;;;;;;;22.00;57.87;100786.56;5060670;28;19996;-47
2023/08/27 07:26:40;;;;;;;;;;;;;;;22.00;57.85;100792.00;5061345;28;20373;-49
2023/08/27 07:29:05;;;;;;;;;;;;;;;22.00;57.72;100797.41;5059973;28;19928;-48
2023/08/27 07:31:31;;;;;;;;;;;;;;;22.00;57.82;100792.00;5062891;28;19924;-51
2023/08/27 07:33:56;;;;;;;;;;;;;;;21.99;57.95;100792.19;5063295;28;19935;-47
2023/08/27 07:36:21;;;;;;;;;;;;;;;22.00;57.65;100797.41;5055493;28;19921;-47
2023/08/27 07:38:47;;;;;;;;;;;;;;;22.00;57.77;100794.69;5075935;28;19920;-47
2023/08/27 07:41:13;;;;;;;;;;;;;;;22.00;58.04;100799.28;5060412;28;19924;-45
2023/08/27 07:43:39;;;;;;;;;;;;;;;22.00;57.70;100804.69;5056007;28;19962;-46
2023/08/27 07:46:04;;;;;;;;;;;;;;;22.00;58.19;100810.09;5057193;28;19921;-45
2023/08/27 07:48:31;;;;;;;;;;;;;;;22.01;57.99;100811.81;5060981;28;19920;-48
2023/08/27 07:50:57;;;;;;;;;;;;;;;22.01;58.19;100806.38;5058573;28;19991;-45
2023/08/27 07:53:22;;;;;;;;;;;;;;;22.00;58.09;100808.22;5046722;28;20289;-47
2023/08/27 07:55:48;;;;;;;;;;;;;;;22.00;58.20;100800.09;5056670;28;19928;-45
2023/08/27 07:58:13;;;;;;;;;;;;;;;22.01;58.29;100799.09;5059783;28;20433;-46
2023/08/27 08:00:38;;;;;;;;;;;;;;;22.01;58.29;100801.81;5060666;28;20424;-47
2023/08/27 08:03:04;;;;;;;;;;;;;;;22.02;58.42;100799.94;5058992;28;19921;-47
2023/08/27 08:05:29;;;;;;;;;;;;;;;22.03;58.56;100793.50;5060015;28;19975;-46
2023/08/27 08:07:54;;;;;;;;;;;;;;;22.04;58.52;100787.88;5057573;28;19921;-49
2023/08/27 08:10:20;;;;;;;;;;;;;;;22.04;58.20;100793.28;5059297;28;19935;-48
2023/08/27 08:12:46;;;;;;;;;;;;;;;22.05;58.12;100791.44;5075704;28;20022;-46
2023/08/27 08:15:11;;;;;;;;;;;;;;;22.05;58.37;100784.16;5056527;28;19924;-45
2023/08/27 08:17:36;;;;;;;;;;;;;;;22.06;58.50;100785.00;5059493;28;19921;-46
2023/08/27 08:20:02;;;;;;;;;;;;;;;22.06;58.27;100785.81;5058937;28;19920;-49
2023/08/27 08:22:27;;;;;;;;;;;;;;;22.07;58.62;100784.78;5059305;28;20357;-46
2023/08/27 08:24:53;;;;;;;;;;;;;;;22.06;58.43;100780.41;5060012;28;19967;-45
2023/08/27 08:27:18;;;;;;;;;;;;;;;22.08;58.43;100782.91;5058678;28;20011;-46
2023/08/27 08:29:43;;;;;;;;;;;;;;;22.07;58.54;100771.25;5058775;28;19956;-48
2023/08/27 08:32:09;;;;;;;;;;;;;;;22.09;58.66;100771.03;5062370;28;19971;-49
2023/08/27 08:34:34;;;;;;;;;;;;;;;22.10;58.69;100768.16;5062043;28;19924;-47
2023/08/27 08:37:01;;;;;;;;;;;;;;;22.10;58.51;100762.75;5061978;28;19917;-47
2023/08/27 08:39:26;;;;;;;;;;;;;;;22.12;58.91;100759.84;5063791;28;19943;-44
2023/08/27 08:42:00;;;;;;;;;;;;;;;22.11;58.83;100761.72;5062214;28;19913;-45
2023/08/27 08:44:32;;;;;;;;;;;;;;;22.13;58.81;100759.69;5061002;28;19969;-45
2023/08/27 08:46:57;;;;;;;;;;;;;;;22.14;58.89;100769.50;5060706;28;19917;-48
2023/08/27 08:49:22;;;;;;;;;;;;;;;22.14;58.92;100766.78;5094503;28;19931;-44
2023/08/27 08:51:49;;;;;;;;;;;;;;;22.14;58.82;100765.94;5067324;28;19912;-46
2023/08/27 08:54:15;;;;;;;;;;;;;;;22.16;58.92;100772.81;5069510;28;19980;-47
2023/08/27 08:56:41;;;;;;;;;;;;;;;22.16;58.99;100777.41;5068467;28;19937;-47
2023/08/27 08:59:07;;;;;;;;;;;;;;;22.15;58.85;100770.31;5069100;28;19912;-47
2023/08/27 09:01:32;;;;;;;;;;;;;;;22.16;58.92;100782.81;5069287;28;19967;-47
2023/08/27 09:03:57;;;;;;;;;;;;;;;22.14;58.90;100772.19;5101894;28;20138;-46
2023/08/27 09:06:22;;;;;;;;;;;;;;;22.14;58.95;100771.34;5067682;28;19916;-46
2023/08/27 09:08:48;;;;;;;;;;;;;;;22.15;58.43;100781.16;5069552;28;19921;-45
2023/08/27 09:11:14;;;;;;;;;;;;;;;22.15;58.88;100778.44;5069221;28;19944;-46
2023/08/27 09:13:39;;;;;;;;;;;;;;;22.14;58.36;100779.47;5067602;28;20377;-45
2023/08/27 09:16:07;;;;;;;;;;;;;;;22.14;58.42;100783.03;5069167;28;19913;-45
2023/08/27 09:18:33;;;;;;;;;;;;;;;22.15;58.40;100771.16;5069422;28;19924;-46
2023/08/27 09:20:58;;;;;;;;;;;;;;;22.15;57.75;100767.63;5068709;28;19929;-47
2023/08/27 09:23:24;;;;;;;;;;;;;;;22.14;57.42;100761.38;5069727;28;19917;-49
2023/08/27 09:25:49;;;;;;;;;;;;;;;22.16;58.18;100766.56;5068823;28;19932;-47
2023/08/27 09:28:14;;;;;;;;;;;;;;;22.16;58.38;100762.00;5083331;28;19914;-49
2023/08/27 09:30:39;;;;;;;;;;;;;;;22.16;58.47;100764.69;5069570;28;20400;-45
2023/08/27 09:33:05;;;;;;;;;;;;;;;22.16;58.15;100751.16;5069435;28;19913;-44
2023/08/27 09:35:37;;;;;;;;;;;;;;;22.17;58.08;100749.28;5068933;28;19913;-46
2023/08/27 09:38:02;;;;;;;;;;;;;;;22.17;58.01;100741.16;5058752;28;19926;-51
2023/08/27 09:40:28;;;;;;;;;;;;;;;22.17;58.03;100741.16;5056254;28;20019;-45
2023/08/27 09:43:04;;;;;;;;;;;;;;;22.18;57.89;100732.88;5060929;28;19919;-49
2023/08/27 09:45:30;;;;;;;;;;;;;;;22.18;58.19;100732.88;5066009;28;19920;-46
2023/08/27 09:47:56;;;;;;;;;;;;;;;22.18;58.00;100726.63;5064333;28;19916;-47
2023/08/27 09:50:21;;;;;;;;;;;;;;;22.19;58.02;100712.03;5065986;28;19928;-46
2023/08/27 09:52:46;;;;;;;;;;;;;;;22.19;57.76;100704.75;5068993;28;19913;-48
2023/08/27 09:55:16;;;;;;;;;;;;;;;22.19;57.97;100704.75;5065501;28;20377;-45
2023/08/27 09:57:47;;;;;;;;;;;;;;;22.19;58.20;100718.28;5067141;28;19940;-48
2023/08/27 10:00:12;;;;;;;;;;;;;;;22.20;58.04;100719.94;5066795;28;19917;-45
2023/08/27 10:02:38;;;;;;;;;;;;;;;21.83;58.08;100657.94;5064992;28;19944;-45
2023/08/27 10:05:07;;;;;;;;;;;;;;;22.22;58.10;100719.78;5096379;28;19920;-51
2023/08/27 10:07:32;;;;;;;;;;;;;;;22.21;57.85;100718.91;5062077;28;19917;-46
2023/08/27 10:09:58;;;;;;;;;;;;;;;22.23;58.10;100723.31;5062509;28;20384;-46
2023/08/27 10:12:23;;;;;;;;;;;;;;;22.23;58.17;100718.75;5063140;28;19934;-44
2023/08/27 10:14:48;;;;;;;;;;;;;;;22.24;58.37;100725.00;5064538;28;19916;-47
2023/08/27 10:17:14;;;;;;;;;;;;;;;22.26;58.43;100717.50;5064556;28;19974;-48
2023/08/27 10:19:39;;;;;;;;;;;;;;;22.26;58.56;100706.66;5060582;28;19920;-45
2023/08/27 10:22:05;;;;;;;;;;;;;;;22.27;58.41;100706.47;5051221;28;19935;-47
2023/08/27 10:24:30;;;;;;;;;;;;;;;22.29;58.22;100706.28;5060744;28;20245;-51
2023/08/27 10:27:01;;;;;;;;;;;;;;;22.32;58.16;100708.59;5062114;28;19913;-44
2023/08/27 10:29:26;;;;;;;;;;;;;;;22.34;58.19;100711.94;5062300;28;19984;-47
2023/08/27 10:31:52;;;;;;;;;;;;;;;22.35;57.97;100703.63;5061842;28;19916;-48
2023/08/27 10:34:17;;;;;;;;;;;;;;;22.40;57.54;100703.03;5063634;28;19952;-49
2023/08/27 10:36:42;;;;;;;;;;;;;;;22.40;57.13;100709.28;5063769;28;19913;-45
2023/08/27 10:39:07;;;;;;;;;;;;;;;22.39;57.19;100701.38;5096902;28;19966;-49
2023/08/27 10:41:34;;;;;;;;;;;;;;;22.39;57.03;100712.22;5094388;28;19917;-43
2023/08/27 10:43:59;;;;;;;;;;;;;;;22.37;56.99;100712.38;5062616;28;19924;-47
2023/08/27 10:46:25;;;;;;;;;;;;;;;22.38;56.86;100719.47;5062775;28;19916;-44
2023/08/27 10:48:51;;;;;;;;;;;;;;;22.36;56.69;100737.81;5064717;28;19925;-46
2023/08/27 10:51:17;;;;;;;;;;;;;;;22.34;57.12;100739.84;5063721;28;20027;-46
2023/08/27 10:53:49;;;;;;;;;;;;;;;22.34;57.36;100755.28;5064576;28;20401;-46
2023/08/27 10:56:32;;;;;;;;;;;;;;;22.33;57.35;100759.84;5062031;28;19916;-46
2023/08/27 10:59:27;;;;;;;;;;;;;;;22.33;57.35;100765.28;5062124;28;19916;-46
2023/08/27 11:02:07;;;;;;;;;;;;;;;22.31;57.42;100778.19;5055470;28;19924;-46
2023/08/27 11:04:35;;;;;;;;;;;;;;;22.31;57.75;100785.47;5062505;28;20317;-46
2023/08/27 11:07:07;;;;;;;;;;;;;;;22.31;57.74;100783.59;5064545;28;19956;-46
2023/08/27 11:09:33;;;;;;;;;;;;;;;22.30;57.75;100772.94;5062175;28;19917;-46
2023/08/27 11:11:59;;;;;;;;;;;;;;;22.29;57.76;100761.28;5094368;28;19966;-46
2023/08/27 11:14:24;;;;;;;;;;;;;;;22.29;57.81;100758.56;5061996;28;19921;-43
2023/08/27 11:16:59;;;;;;;;;;;;;;;22.29;57.88;100755.03;5057458;28;19988;-55
2023/08/27 11:19:26;;;;;;;;;;;;;;;22.29;57.72;100752.31;5062703;28;19921;-51
2023/08/27 11:21:51;;;;;;;;;;;;;;;22.29;57.88;100755.84;5062264;28;19950;-47
2023/08/27 11:24:17;;;;;;;;;;;;;;;22.30;57.75;100759.41;5093967;28;19940;-48
2023/08/27 11:26:43;;;;;;;;;;;;;;;22.29;57.68;100747.72;5056145;28;19917;-50
2023/08/27 11:29:08;;;;;;;;;;;;;;;22.33;55.47;100754.44;5060523;28;19927;-53
2023/08/27 11:31:33;;;;;;;;;;;;;;;22.26;55.88;100775.22;5060606;28;19952;-53
2023/08/27 11:33:59;;;;;;;;;;;;;;;22.21;56.29;100774.94;5060621;28;19969;-54
2023/08/27 11:36:24;;;;;;;;;;;;;;;22.21;56.77;100774.94;5092797;28;19924;-50
2023/08/27 11:38:50;;;;;;;;;;;;;;;22.20;56.97;100776.81;5061217;28;19939;-52
2023/08/27 11:41:15;;;;;;;;;;;;;;;22.21;56.99;100777.66;5062114;28;19917;-48
2023/08/27 11:43:40;;;;;;;;;;;;;;;22.22;57.23;100790.19;5061809;28;19920;-44
2023/08/27 11:46:19;;;;;;;;;;;;;;;22.22;57.35;100782.06;5063019;28;20011;-46
2023/08/27 11:48:48;;;;;;;;;;;;;;;22.23;57.66;100785.59;5062600;28;19946;-46
2023/08/27 11:51:13;;;;;;;;;;;;;;;22.23;57.73;100777.47;5061710;28;19917;-46
2023/08/27 11:53:38;;;;;;;;;;;;;;;22.24;57.81;100773.75;5063388;28;20254;-44
2023/08/27 11:56:03;;;;;;;;;;;;;;;22.24;57.75;100796.25;5059600;28;20396;-48
2023/08/27 11:58:29;;;;;;;;;;;;;;;22.24;57.87;100793.53;5061286;28;19919;-46
2023/08/27 12:00:54;;;;;;;;;;;;;;;22.25;58.06;100797.06;5063298;28;20012;-43
2023/08/27 12:03:19;;;;;;;;;;;;;;;22.24;58.12;100801.66;5063666;28;19912;-44
2023/08/27 12:05:44;;;;;;;;;;;;;;;22.24;58.26;100801.66;5049017;28;19916;-44
2023/08/27 12:08:10;;;;;;;;;;;;;;;22.25;58.49;100807.91;5060736;28;19917;-49
2023/08/27 12:10:44;;;;;;;;;;;;;;;22.24;58.93;100793.53;5060814;28;20239;-48
2023/08/27 12:13:09;;;;;;;;;;;;;;;22.24;58.85;100785.41;5062478;28;19939;-48
2023/08/27 12:15:35;;;;;;;;;;;;;;;22.24;58.75;100788.09;5059589;28;19917;-48
2023/08/27 12:18:01;;;;;;;;;;;;;;;22.23;58.83;100775.59;5058591;28;19912;-44
2023/08/27 12:20:32;;;;;;;;;;;;;;;22.24;58.98;100771.88;5059690;28;19928;-48
2023/08/27 12:23:08;;;;;;;;;;;;;;;22.24;59.23;100779.97;5059555;28;19960;-43
2023/08/27 12:25:49;;;;;;;;;;;;;;;22.23;59.19;100789.16;5090826;28;19924;-46
2023/08/27 12:28:15;;;;;;;;;;;;;;;22.23;59.22;100783.72;5059080;28;19982;-46
2023/08/27 12:30:50;;;;;;;;;;;;;;;22.23;59.12;100772.06;5062424;28;19913;-44
2023/08/27 12:33:15;;;;;;;;;;;;;;;22.24;59.02;100779.16;5060853;28;20332;-43
2023/08/27 12:35:46;;;;;;;;;;;;;;;22.23;59.01;100781.03;5061274;28;19912;-44